• Join FlightAware (Why Join?)
  • Login
  • US Flag 
03:02PM EST


 

Airport Tracker/Info


-or-


 

Live Flight TrackerFlight Track Log ✈ N934PC ✈ 05-Apr-2014 ✈ KAPF - KLUK

Flight Track Log - Related Links

Times and Time Zones

All times are in EDT time to prevent confusion due to time zone crossing. See the N934PC flight status page for this flight to view local times or setup timezone preferences in your user account.

Time Position Orientation Groundspeed Altitude Reporting Facility
EDT Latitude Longitude Course Direction KTS MPH feet Rate Location/Type
12:04PM 26.4060 -81.8021 355° North  Level FlightAware Approximate
12:05PM 26.4489 -81.8061 355° North  Level FlightAware Approximate
12:06PM 26.4918 -81.8100 355° North  Level FlightAware Approximate
12:07PM 26.5347 -81.8140 355° North  Level FlightAware Approximate
12:08PM 26.5776 -81.8180 355° North  Level FlightAware Approximate
12:09PM 26.6205 -81.8220 355° North  Level FlightAware Approximate
12:10PM 26.6633 -81.8260 355° North  Level FlightAware Approximate
12:11PM 26.7062 -81.8299 355° North  Level FlightAware Approximate
12:12PM 26.7491 -81.8339 355° North  Level FlightAware Approximate
12:12PM 26.6086 -81.8031 355° North 176 203 6,000  Level Miami Center
12:13PM 26.7920 -81.8379 355° North  Level FlightAware Approximate
12:13PM 26.6561 -81.8119 351° North 163 188 6,000  Level Miami Center
12:14PM 26.8349 -81.8419 355° North  Level FlightAware Approximate
12:14PM 26.7019 -81.8186 353° North 195 224 6,000  Level Miami Center
12:15PM 26.8778 -81.8459 355° North  Level FlightAware Approximate
12:15PM 26.7436 -81.8225 355° North 169 194 6,000  Level Miami Center
12:16PM 26.9207 -81.8499 355° North  Level FlightAware Approximate
12:16PM 26.7892 -81.8292 353° North 164 189 6,000  Level Miami Center
12:17PM 26.9635 -81.8539 355° North  Level FlightAware Approximate
12:17PM 26.8350 -81.8381 350° North 164 189 6,000  Level Miami Center
12:18PM 26.8806 -81.8447 353° North 177 204 6,000  Level Miami Center
12:19PM 26.9264 -81.8514 353° North 183 211 6,000  Level Miami Center
12:20PM 26.9700 -81.8578 353° North 174 200 6,000 60 Level Miami Center
12:21PM 27.0197 -81.8669 351° North 164 189 6,200 300 Climbing Miami Center
12:22PM 27.0592 -81.8708 355° North 151 174 6,700 360 Climbing Miami Center
12:23PM 27.0986 -81.8797 349° North 141 162 7,000 300 Climbing Miami Center
12:24PM 27.1358 -81.8861 351° North 141 162 7,400 360 Climbing Miami Center
12:25PM 27.1733 -81.8922 352° North 141 162 7,800 300 Climbing Miami Center
12:26PM 27.2125 -81.9008 349° North 141 162 8,000 60 Climbing Miami Center
12:27PM 27.2525 -81.8911 12° North 141 162 8,000  Level Miami Center
12:28PM 27.2967 -81.8814 11° North 141 162 8,000  Level Miami Center
12:29PM 27.3389 -81.8714 12° North 146 168 8,000  Level Miami Center
12:30PM 27.3850 -81.8617 11° North 146 168 8,000  Level Miami Center
12:31PM 27.4292 -81.8519 11° North 151 174 8,000  Level Miami Center
12:32PM 27.4733 -81.8422 11° North 156 180 8,000  Level Miami Center
12:33PM 27.5156 -81.8322 12° North 156 180 8,000  Level Miami Center
12:34PM 27.5575 -81.8225 12° North 156 180 8,000  Level Miami Center
12:35PM 27.5994 -81.8150 North 156 180 8,000  Level Miami Center
12:36PM 27.6436 -81.8050 11° North 156 180 8,000  Level Miami Center
12:37PM 27.6817 -81.7950 13° North 156 180 8,000  Level Miami Center
12:39PM 27.7500 -81.7833 North 157 181 8,000  Level Orlando TRACON
12:40PM 27.8000 -81.7667 16° North 156 180 8,000  Level Orlando TRACON
12:41PM 27.8500 -81.7667 360° North 157 181 8,000  Level Orlando TRACON
12:42PM 27.8833 -81.7500 24° Northeast 160 184 8,000  Level Orlando TRACON
12:43PM 27.9333 -81.7500 360° North 163 188 8,000  Level Orlando TRACON
12:44PM 27.9833 -81.7500 360° North 158 182 8,000  Level Orlando TRACON
12:45PM 28.0167 -81.7500 360° North 158 182 8,000  Level Orlando TRACON
12:46PM 28.0667 -81.7500 360° North 158 182 8,000  Level Orlando TRACON
12:47PM 28.1000 -81.7500 360° North 157 181 8,000 -60 Level Orlando TRACON
12:48PM 28.1500 -81.7500 360° North 156 180 7,900  Descending Orlando TRACON
12:49PM 28.2000 -81.7500 360° North 153 176 8,000  Climbing Orlando TRACON
12:50PM 28.2333 -81.7500 360° North 155 178 8,000 -60 Level Orlando TRACON
12:51PM 28.2833 -81.7500 360° North 154 177 7,900 -60 Descending Orlando TRACON
12:52PM 28.3167 -81.7833 319° Northwest 159 183 7,900  Level Orlando TRACON
12:53PM 28.3667 -81.8000 344° North 150 173 8,000  Climbing Orlando TRACON
12:54PM 28.4000 -81.8167 336° Northwest 147 169 8,000  Level Orlando TRACON
12:55PM 28.4333 -81.8333 336° Northwest 149 171 8,000  Level Orlando TRACON
12:56PM 28.4667 -81.8667 319° Northwest 147 169 8,000  Level Orlando TRACON
12:57PM 28.5000 -81.8833 336° Northwest 144 166 8,000  Level Orlando TRACON
12:58PM 28.5333 -81.9167 319° Northwest 145 167 8,000  Level Orlando TRACON
12:59PM 28.5667 -81.9333 336° Northwest 147 169 8,000  Level Orlando TRACON
01:00PM 28.6167 -81.9500 344° North 146 168 8,000  Level Orlando TRACON
01:02PM 28.6644 -81.9936 321° Northwest 150 173 8,000  Level Jacksonville Center
01:03PM 28.7019 -82.0167 332° Northwest 151 174 8,000 -60 Level Jacksonville Center
01:04PM 28.7378 -82.0403 330° Northwest 150 173 7,900  Descending Jacksonville Center
01:05PM 28.7775 -82.0539 343° North 158 182 8,000  Climbing Jacksonville Center
01:06PM 28.8214 -82.0631 350° North 153 176 7,900 -60 Descending Jacksonville Center
01:07PM 28.8611 -82.0769 343° North 155 178 7,900  Level Jacksonville Center
01:08PM 28.9069 -82.0861 350° North 154 177 7,900  Level Jacksonville Center
01:09PM 28.9489 -82.1000 344° North 154 177 7,900  Level Jacksonville Center
01:10PM 28.9950 -82.1139 345° North 151 174 7,900  Level Jacksonville Center
01:11PM 29.0325 -82.1231 348° North 151 174 7,900  Level Jacksonville Center
01:12PM 29.0722 -82.1347 346° North 149 171 8,000  Climbing Jacksonville Center
01:13PM 29.1142 -82.1486 344° North 150 173 8,000 -60 Level Jacksonville Center
01:14PM 29.1581 -82.1603 347° North 148 170 7,900  Descending Jacksonville Center
01:15PM 29.1978 -82.1719 346° North 148 170 8,000  Climbing Jacksonville Center
01:16PM 29.2436 -82.1833 348° North 149 171 8,000  Level Jacksonville Center
01:17PM 29.2833 -82.1950 346° North 150 173 8,000  Level Jacksonville Center
01:18PM 29.3272 -82.2089 345° North 150 173 8,000 -60 Level Jacksonville Center
01:19PM 29.3692 -82.2183 349° North 151 174 7,900 -60 Descending Jacksonville Center
01:20PM 29.4067 -82.2297 345° North 153 176 7,900  Level Jacksonville Center
01:21PM 29.4486 -82.2439 344° North 147 169 8,000  Climbing Jacksonville Center
01:22PM 29.4861 -82.2531 348° North 148 170 7,900  Descending Jacksonville Center
01:23PM 29.5281 -82.2672 344° North 149 171 8,000  Climbing Jacksonville Center
01:24PM 29.5761 -82.2789 348° North 156 180 8,000  Level Jacksonville Center
01:25PM 29.6178 -82.2906 346° North 156 180 8,000  Level Jacksonville Center
01:26PM 29.6575 -82.3022 346° North 156 180 8,000 -60 Level Jacksonville Center
01:27PM 29.6994 -82.3139 346° North 156 180 7,900 -60 Descending Jacksonville Center
01:28PM 29.7350 -82.3306 338° Northwest 144 166 7,900  Level Jacksonville Center
01:29PM 29.7683 -82.3350 353° North 144 166 8,000  Climbing Jacksonville Center
01:30PM 29.8164 -82.3467 348° North 144 166 8,000  Level Jacksonville Center
01:31PM 29.8519 -82.3586 344° North 144 166 8,000 -60 Level Jacksonville Center
01:32PM 29.8939 -82.3703 346° North 144 166 7,900 -60 Descending Jacksonville Center
01:33PM 29.9336 -82.3819 346° North 144 166 7,900  Level Jacksonville Center
01:34PM 29.9733 -82.3914 348° North 144 166 8,000  Climbing Jacksonville Center
01:35PM 30.0108 -82.4056 342° North 144 166 7,900  Descending Jacksonville Center
01:36PM 30.0547 -82.4197 344° North 149 171 8,000  Climbing Jacksonville Center
01:37PM 30.0925 -82.4292 348° North 149 171 7,900 -60 Descending Jacksonville Center
01:38PM 30.1361 -82.4339 355° North 149 171 7,900  Level Jacksonville Center
01:39PM 30.1758 -82.4383 354° North 143 165 8,000  Climbing Jacksonville Center
01:40PM 30.2156 -82.4456 351° North 143 165 8,000 180 Level Jacksonville Center
01:41PM 30.2533 -82.4453 360° North 143 165 8,400 360 Climbing Jacksonville Center
01:42PM 30.2844 -82.4522 349° North 132 152 8,800 300 Climbing Jacksonville Center
01:43PM 30.3200 -82.4569 353° North 121 139 9,000 60 Climbing Jacksonville Center
01:44PM 30.3578 -82.4689 345° North 127 146 9,000 180 Level Jacksonville Center
01:45PM 30.3953 -82.4783 348° North 132 152 9,400 300 Climbing Jacksonville Center
01:46PM 30.4308 -82.4878 347° North 132 152 9,700 300 Climbing Jacksonville Center
01:47PM 30.4642 -82.4972 346° North 127 146 10,000 120 Climbing Jacksonville Center
01:48PM 30.4978 -82.5142 337° Northwest 121 139 10,000 -60 Level Jacksonville Center
01:49PM 30.5333 -82.5356 333° Northwest 134 154 9,900  Descending Jacksonville Center
01:50PM 30.5792 -82.5306 North 139 160 10,000  Climbing Jacksonville Center
01:51PM 30.6231 -82.5328 358° North 149 171 9,900  Descending Jacksonville Center
01:52PM 30.6669 -82.5328 360° North 154 177 10,000  Climbing Jacksonville Center
01:53PM 30.7086 -82.5325 360° North 154 177 10,000  Level Jacksonville Center
01:54PM 30.7525 -82.5325 360° North 154 177 10,000  Level Jacksonville Center
01:55PM 30.7964 -82.5347 358° North 159 183 10,000  Level Jacksonville Center
01:56PM 30.8381 -82.5394 354° North 159 183 10,000  Level Jacksonville Center
01:57PM 30.8800 -82.5392 360° North 159 183 10,000  Level Jacksonville Center
01:58PM 30.9236 -82.5414 357° North 159 183 10,000  Level Jacksonville Center
01:59PM 30.9675 -82.5436 358° North 159 183 10,000  Level Jacksonville Center
02:00PM 31.0114 -82.5458 358° North 159 183 10,000  Level Jacksonville Center
02:01PM 31.0575 -82.5481 358° North 159 183 10,000  Level Jacksonville Center
02:02PM 31.1011 -82.5481 360° North 159 183 10,000  Level Jacksonville Center
02:03PM 31.1472 -82.5528 355° North 159 183 10,000  Level Jacksonville Center
02:04PM 31.1931 -82.5525 360° North 159 183 10,000  Level Jacksonville Center
02:05PM 31.2369 -82.5525 360° North 159 183 10,000  Level Jacksonville Center
02:06PM 31.2808 -82.5594 352° North 159 183 10,000  Level Jacksonville Center
02:07PM 31.3247 -82.5667 352° North 159 183 10,000  Level Jacksonville Center
02:08PM 31.3706 -82.5739 352° North 159 183 10,000  Level Jacksonville Center
02:09PM 31.4083 -82.5883 342° North 159 183 10,000  Level Jacksonville Center
02:10PM 31.4542 -82.5906 358° North 159 183 10,000  Level Jacksonville Center
02:11PM 31.4961 -82.6003 349° North 152 175 10,000  Level Jacksonville Center
02:12PM 31.5336 -82.6097 348° North 147 169 10,000  Level Jacksonville Center
02:13PM 31.5775 -82.6194 349° North 147 169 10,000  Level Jacksonville Center
02:14PM 31.6172 -82.6267 351° North 147 169 10,000  Level Jacksonville Center
02:15PM 31.6589 -82.6339 352° North 147 169 10,000  Level Jacksonville Center
02:16PM 31.7028 -82.6458 347° North 147 169 10,000  Level Jacksonville Center
02:17PM 31.7467 -82.6531 352° North 147 169 10,000  Level Jacksonville Center
02:18PM 31.7864 -82.6628 348° North 147 169 10,000  Level Jacksonville Center
02:19PM 31.8261 -82.6700 351° North 147 169 10,000  Level Jacksonville Center
02:20PM 31.8678 -82.6772 352° North 147 169 10,000  Level Jacksonville Center
02:21PM 31.9033 -82.6869 347° North 142 163 10,000  Level Jacksonville Center
02:22PM 31.9431 -82.6942 351° North 142 163 10,000  Level Jacksonville Center
02:23PM 31.9806 -82.7014 351° North 142 163 10,000  Level Jacksonville Center
02:24PM 32.0181 -82.7136 345° North 142 163 10,000  Level Jacksonville Center
02:25PM 32.0578 -82.7186 354° North 142 163 10,000  Level Jacksonville Center
02:26PM 32.0975 -82.7283 348° North 142 163 10,000  Level Jacksonville Center
02:29PM 32.2000 -82.7500 350° North 145 167 10,000  Level Atlanta TRACON
02:30PM 32.2333 -82.7500 360° North 144 166 10,000  Level Atlanta TRACON
02:31PM 32.2833 -82.7667 344° North 148 170 10,000  Level Atlanta TRACON
02:32PM 32.3167 -82.7667 360° North 150 173 10,000  Level Atlanta TRACON
02:33PM 32.3667 -82.7833 344° North 151 174 10,000  Level Atlanta TRACON
02:34PM 32.4000 -82.7833 360° North 146 168 10,000  Level Atlanta TRACON
02:35PM 32.4500 -82.8000 344° North 149 171 10,000  Level Atlanta TRACON
02:36PM 32.4833 -82.8167 337° Northwest 147 169 10,000  Level Atlanta TRACON
02:37PM 32.5167 -82.8167 360° North 147 169 10,000  Level Atlanta TRACON
02:38PM 32.5667 -82.8333 344° North 146 168 10,000  Level Atlanta TRACON
02:39PM 32.6000 -82.8500 337° Northwest 140 161 10,000  Level Atlanta TRACON
02:40PM 32.6333 -82.8667 337° Northwest 139 160 10,000  Level Atlanta TRACON
02:41PM 32.6667 -82.8667 360° North 143 165 10,000  Level Atlanta TRACON
02:42PM 32.7000 -82.8833 337° Northwest 145 167 10,000  Level Atlanta TRACON
02:43PM 32.7500 -82.9000 344° North 146 168 10,000  Level Atlanta TRACON
02:44PM 32.7833 -82.9167 337° Northwest 141 162 10,000  Level Atlanta TRACON
02:45PM 32.8167 -82.9333 337° Northwest 141 162 10,000  Level Atlanta TRACON
02:46PM 32.8667 -82.9500 344° North 141 162 10,000  Level Atlanta TRACON
02:47PM 32.9000 -82.9667 337° Northwest 138 159 10,000  Level Atlanta TRACON
02:48PM 32.9333 -82.9833 337° Northwest 137 158 10,000  Level Atlanta TRACON
02:49PM 32.9667 -83.0000 337° Northwest 144 166 10,000  Level Atlanta TRACON
02:50PM 33.0000 -83.0167 337° Northwest 142 163 10,000  Level Atlanta TRACON
02:51PM 33.0333 -83.0333 337° Northwest 141 162 10,000  Level Atlanta TRACON
02:52PM 33.0833 -83.0500 344° North 141 162 10,000  Level Atlanta TRACON
02:53PM 33.1167 -83.0667 337° Northwest 141 162 10,000  Level Atlanta TRACON
02:54PM 33.1500 -83.0833 337° Northwest 137 158 10,000  Level Atlanta TRACON
02:55PM 33.1833 -83.1000 337° Northwest 136 157 10,000  Level Atlanta TRACON
02:56PM 33.2333 -83.1167 344° North 140 161 10,000  Level Atlanta TRACON
02:57PM 33.2667 -83.1333 337° Northwest 137 158 10,000  Level Atlanta TRACON
02:58PM 33.3000 -83.1500 337° Northwest 134 154 10,000  Level Atlanta TRACON
02:59PM 33.3333 -83.1667 337° Northwest 137 158 10,000  Level Atlanta TRACON
03:00PM 33.3667 -83.1833 337° Northwest 134 154 10,000  Level Atlanta TRACON
03:01PM 33.4000 -83.2000 337° Northwest 136 157 10,000  Level Atlanta TRACON
03:02PM 33.4333 -83.2167 337° Northwest 137 158 10,000  Level Atlanta TRACON
03:03PM 33.4667 -83.2333 337° Northwest 133 153 10,000  Level Atlanta TRACON
03:04PM 33.5000 -83.2500 337° Northwest 138 159 10,000  Level Atlanta TRACON
03:05PM 33.5333 -83.2667 337° Northwest 135 155 10,000  Level Atlanta TRACON
03:06PM 33.5833 -83.2833 344° North 136 157 10,000  Level Atlanta TRACON
03:07PM 33.6167 -83.3000 337° Northwest 132 152 10,000  Level Atlanta TRACON
03:08PM 33.6500 -83.3167 337° Northwest 141 162 10,000  Level Atlanta TRACON
03:09PM 33.6833 -83.3333 337° Northwest 136 157 10,000  Level Atlanta TRACON
03:10PM 33.7167 -83.3500 337° Northwest 133 153 10,000  Level Atlanta TRACON
03:11PM 33.7500 -83.3667 337° Northwest 134 154 10,000  Level Atlanta TRACON
03:12PM 33.7833 -83.3833 337° Northwest 142 163 10,000  Level Atlanta TRACON
03:13PM 33.8167 -83.4000 337° Northwest 142 163 10,000 -60 Level Atlanta TRACON
03:14PM 33.8500 -83.4167 337° Northwest 139 160 9,900 -60 Descending Atlanta TRACON
03:15PM 33.8833 -83.4167 360° North 139 160 9,900  Level Atlanta TRACON
03:16PM 33.9333 -83.4500 331° Northwest 142 163 9,900  Level Atlanta TRACON
03:17PM 33.9667 -83.4667 337° Northwest 142 163 9,900  Level Atlanta TRACON
03:18PM 34.0039 -83.4775 346° North 142 163 10,000  Climbing Atlanta Center
03:19PM 34.0372 -83.4947 337° Northwest 142 163 10,000  Level Atlanta Center
03:20PM 34.0686 -83.5097 338° Northwest 142 163 10,000  Level Atlanta Center
03:21PM 34.1083 -83.5244 343° North 136 157 10,000  Level Atlanta Center
03:22PM 34.1439 -83.5419 338° Northwest 136 157 10,000  Level Atlanta Center
03:23PM 34.1814 -83.5567 342° North 136 157 10,000  Level Atlanta Center
03:24PM 34.2150 -83.5742 337° Northwest 129 148 10,000  Level Atlanta Center
03:25PM 34.2547 -83.5914 340° North 134 154 10,000  Level Atlanta Center
03:26PM 34.2922 -83.6089 339° North 134 154 10,000  Level Atlanta Center
03:27PM 34.3278 -83.6264 338° Northwest 134 154 10,000  Level Atlanta Center
03:28PM 34.3675 -83.6436 340° North 134 154 10,000  Level Atlanta Center
03:29PM 34.4053 -83.6611 339° North 134 154 10,000  Level Atlanta Center
03:30PM 34.4428 -83.6786 339° North 134 154 10,000  Level Atlanta Center
03:31PM 34.4806 -83.6986 336° Northwest 134 154 10,000  Level Atlanta Center
03:32PM 34.5181 -83.7111 345° North 139 160 10,000  Level Atlanta Center
03:33PM 34.5578 -83.7286 340° North 145 167 10,000  Level Atlanta Center
03:34PM 34.5975 -83.7511 335° Northwest 150 173 10,000  Level Atlanta Center
03:35PM 34.6350 -83.7661 342° North 150 173 10,000  Level Atlanta Center
03:36PM 34.6728 -83.7861 336° Northwest 150 173 10,000  Level Atlanta Center
03:37PM 34.7081 -83.8014 340° North 150 173 10,000  Level Atlanta Center
03:38PM 34.7458 -83.8189 339° North 150 173 10,000  Level Atlanta Center
03:39PM 34.7856 -83.8364 340° North 150 173 10,000  Level Atlanta Center
03:40PM 34.8231 -83.8542 339° North 150 173 10,000  Level Atlanta Center
03:41PM 34.8606 -83.8742 336° Northwest 150 173 10,000  Level Atlanta Center
03:42PM 34.9003 -83.8944 337° Northwest 150 173 10,100  Climbing Atlanta Center
03:43PM 34.9400 -83.9147 337° Northwest 150 173 10,100  Level Atlanta Center
03:44PM 34.9817 -83.9222 352° North 150 173 10,100  Level Atlanta Center
03:45PM 35.0256 -83.9222 360° North 150 173 10,100  Level Atlanta Center
03:46PM 35.0672 -83.9272 354° North 150 173 10,100  Level Atlanta Center
03:47PM 35.1089 -83.9322 354° North 150 173 10,100  Level Atlanta Center
03:48PM 35.1508 -83.9372 354° North 150 173 10,100 -60 Level Atlanta Center
03:49PM 35.1944 -83.9422 355° North 150 173 10,000 -60 Descending Atlanta Center
03:50PM 35.2364 -83.9447 357° North 150 173 10,000  Level Atlanta Center
03:51PM 35.2800 -83.9497 355° North 150 173 10,000  Level Atlanta Center
03:52PM 35.3239 -83.9547 355° North 150 173 10,000  Level Atlanta Center
03:53PM 35.3678 -83.9597 355° North 155 178 10,000  Level Atlanta Center
03:54PM 35.4117 -83.9647 355° North 155 178 10,000  Level Atlanta Center
03:55PM 35.4511 -83.9672 357° North 155 178 10,000 -120 Level Atlanta Center
04:11PM 36.1564 -84.0414 351° North 172 198 8,600 -120 Descending Atlanta Center
04:12PM 36.1311 -83.9294 351° North  Level FlightAware Approximate
04:12PM 36.2022 -84.0464 355° North 172 198 8,300  Level Atlanta Center
04:13PM 36.1715 -83.9375 351° North  Level FlightAware Approximate
04:13PM 36.2481 -84.0492 357° North 172 198 8,000  Level Atlanta Center
04:14PM 36.2118 -83.9456 351° North  Level FlightAware Approximate
04:14PM 36.2950 -84.0500 359° North 169 194 8,100  Level Indianapolis Center
04:15PM 36.2522 -83.9537 351° North  Level FlightAware Approximate
04:15PM 36.3389 -84.0550 355° North 164 189 8,100  Level Indianapolis Center
04:16PM 36.3828 -84.0594 355° North 162 186 8,100  Level Indianapolis Center
04:17PM 36.4261 -84.0644 355° North 161 185 8,100  Level Indianapolis Center
04:18PM 36.4697 -84.0692 355° North 161 185 8,100  Level Indianapolis Center
04:19PM 36.5186 -84.0736 356° North 160 184 8,100 -180 Level Indianapolis Center
04:20PM 36.5633 -84.0761 357° North 160 184 7,800 -240 Descending Indianapolis Center
04:21PM 36.6083 -84.0814 355° North 160 184 7,700 -120 Descending Indianapolis Center
04:22PM 36.6533 -84.0878 354° North 160 184 7,600 -60 Descending Indianapolis Center
04:23PM 36.6978 -84.0925 355° North 161 185 7,600  Level Indianapolis Center
04:24PM 36.7481 -84.0992 354° North 160 184 7,600  Level Indianapolis Center
04:25PM 36.7922 -84.1050 354° North 157 181 7,600  Level Indianapolis Center
04:26PM 36.8342 -84.1114 353° North 157 181 7,600  Level Indianapolis Center
04:27PM 36.8775 -84.1150 356° North 156 180 7,600  Level Indianapolis Center
04:28PM 36.9200 -84.1217 353° North 156 180 7,600  Level Indianapolis Center
04:29PM 36.9639 -84.1275 354° North 155 178 7,600  Level Indianapolis Center
04:30PM 37.0139 -84.1336 354° North 156 180 7,600  Level Indianapolis Center
04:31PM 37.0569 -84.1389 354° North 156 180 7,600  Level Indianapolis Center
04:32PM 37.0994 -84.1450 353° North 155 178 7,600  Level Indianapolis Center
04:33PM 37.1425 -84.1503 354° North 155 178 7,600  Level Indianapolis Center
04:34PM 37.1861 -84.1553 355° North 155 178 7,600  Level Indianapolis Center
04:35PM 37.2283 -84.1617 353° North 155 178 7,600  Level Indianapolis Center
04:36PM 37.2786 -84.1683 354° North 155 178 7,600 -60 Level Indianapolis Center
04:37PM 37.3211 -84.1742 354° North 155 178 7,500 -60 Descending Indianapolis Center
04:38PM 37.3642 -84.1800 354° North 155 178 7,500  Level Indianapolis Center
04:39PM 37.4078 -84.1850 355° North 155 178 7,500  Level Indianapolis Center
04:40PM 37.4503 -84.1908 354° North 155 178 7,500  Level Indianapolis Center
04:41PM 37.4931 -84.1958 355° North 155 178 7,500  Level Indianapolis Center
04:42PM 37.5425 -84.2025 354° North 154 177 7,500  Level Indianapolis Center
04:44PM 37.5858 -84.2094 353° North 154 177 7,500  Level Indianapolis Center
04:45PM 37.6278 -84.2144 355° North 154 177 7,500  Level Indianapolis Center
04:46PM 37.6706 -84.2203 354° North 154 177 7,500  Level Indianapolis Center
04:47PM 37.7128 -84.2250 355° North 154 177 7,500  Level Indianapolis Center
04:48PM 37.7550 -84.2308 354° North 153 176 7,500  Level Indianapolis Center
04:49PM 37.7978 -84.2369 354° North 154 177 7,500  Level Indianapolis Center
04:50PM 37.8475 -84.2433 354° North 153 176 7,500  Level Indianapolis Center
04:51PM 37.8897 -84.2489 354° North 153 176 7,500  Level Indianapolis Center
04:52PM 37.9319 -84.2556 353° North 153 176 7,500  Level Indianapolis Center
04:53PM 37.9744 -84.2617 354° North 153 176 7,500  Level Indianapolis Center
04:54PM 38.0183 -84.2664 355° North 153 176 7,500  Level Indianapolis Center
04:55PM 38.0619 -84.2719 354° North 154 177 7,500 -240 Level Indianapolis Center
04:56PM 38.1133 -84.2797 353° North 155 178 7,100 -300 Descending Indianapolis Center
04:57PM 38.1600 -84.2853 355° North 160 184 6,900 -300 Descending Indianapolis Center
04:58PM 38.2083 -84.2933 353° North 168 193 6,600 -300 Descending Indianapolis Center
04:59PM 38.2544 -84.2983 355° North 168 193 6,300 -300 Descending Indianapolis Center
05:00PM 38.2997 -84.3036 355° North 168 193 6,000 -300 Descending Indianapolis Center
05:01PM 38.3469 -84.3100 354° North 168 193 5,700 -300 Descending Indianapolis Center
05:02PM 38.3931 -84.3167 354° North 168 193 5,400 -300 Descending Indianapolis Center
05:03PM 38.4467 -84.3242 354° North 168 193 5,100 -300 Descending Indianapolis Center
05:04PM 38.4947 -84.3303 354° North 168 193 4,900 -300 Descending Indianapolis Center
05:05PM 38.5411 -84.3358 355° North 168 193 4,600 -300 Descending Indianapolis Center
05:06PM 38.5872 -84.3419 354° North 168 193 4,400 -60 Descending Indianapolis Center
05:07PM 38.6328 -84.3494 353° North 168 193 4,500  Climbing Indianapolis Center
05:08PM 38.6756 -84.3575 352° North 163 188 4,400  Descending Indianapolis Center
05:09PM 38.7186 -84.3628 355° North 161 185 4,500  Climbing Indianapolis Center
05:10PM 38.7606 -84.3675 355° North 155 178 4,500  Level Indianapolis Center
05:11PM 38.8133 -84.3753 353° North 155 178 4,500 -120 Level Indianapolis Center
05:12PM 38.8581 -84.3814 354° North 155 178 4,300 -300 Descending Indianapolis Center
05:13PM 38.9031 -84.3869 355° North 157 181 4,000 -300 Descending Indianapolis Center
05:14PM 38.9433 -84.3942 352° North 159 183 3,700 -600 Descending Indianapolis Center
05:16PM 39.0167 -84.4333 337° Northwest 136 157 2,400 -780 Descending Cincinnati TRACON
05:17PM 39.0500 -84.4333 360° North 135 155 1,600 -840 Descending Cincinnati TRACON
05:19PM 39.1000 -84.4167 349° North  Level FlightAware Approximate
05:26PM 39.1033 -84.4186 349° North  Level Estimated